createdAt,value
2022-10-17T00:00:48.968Z,9.86
2022-10-17T00:03:16.249Z,10.01
2022-10-17T00:05:45.840Z,9.99
2022-10-17T00:08:15.648Z,9.90
2022-10-17T00:10:43.054Z,9.81
2022-10-17T00:13:10.117Z,9.73
2022-10-17T00:15:36.959Z,9.71
2022-10-17T00:18:04.037Z,9.63
2022-10-17T00:20:30.822Z,9.59
2022-10-17T00:22:57.649Z,9.64
2022-10-17T00:25:24.429Z,9.63
2022-10-17T00:27:51.360Z,9.57
2022-10-17T00:30:18.330Z,9.71
2022-10-17T00:32:45.750Z,9.82
2022-10-17T00:35:12.892Z,9.90
2022-10-17T00:37:39.682Z,9.89
2022-10-17T00:40:07.879Z,9.85
2022-10-17T00:42:34.841Z,9.84
2022-10-17T00:45:22.912Z,9.92
2022-10-17T00:48:07.192Z,9.78
2022-10-17T00:50:39.006Z,9.68
2022-10-17T00:53:09.283Z,9.66
2022-10-17T00:55:42.653Z,9.55
2022-10-17T00:58:09.616Z,9.57
2022-10-17T01:00:36.392Z,9.49
2022-10-17T01:03:05.100Z,9.50
2022-10-17T01:05:33.426Z,9.59
2022-10-17T01:08:01.557Z,9.47
2022-10-17T01:10:35.414Z,9.45
2022-10-17T01:13:43.009Z,9.40
2022-10-17T01:16:16.546Z,9.31
2022-10-17T01:19:02.884Z,9.24
2022-10-17T01:21:55.497Z,9.27
2022-10-17T01:24:40.487Z,9.21
2022-10-17T01:27:20.037Z,9.30
2022-10-17T01:29:57.844Z,9.19
2022-10-17T01:32:35.417Z,9.23
2022-10-17T01:35:24.278Z,9.27
2022-10-17T01:38:03.135Z,9.18
2022-10-17T01:40:37.098Z,9.26
2022-10-17T01:43:13.166Z,9.26
2022-10-17T01:45:52.907Z,9.37
2022-10-17T01:48:25.360Z,9.44
2022-10-17T01:50:58.176Z,9.50
2022-10-17T01:53:39.640Z,9.42
2022-10-17T01:56:10.025Z,9.36
2022-10-17T01:58:43.867Z,9.49
2022-10-17T02:01:13.319Z,9.55
2022-10-17T02:03:43.967Z,9.57
2022-10-17T02:06:10.994Z,9.37
2022-10-17T02:08:50.211Z,9.22
2022-10-17T02:11:19.963Z,9.11
2022-10-17T02:13:58.845Z,9.13
2022-10-17T02:17:03.262Z,9.06
2022-10-17T02:19:56.430Z,9.00
2022-10-17T02:22:44.111Z,8.98
2022-10-17T02:25:42.382Z,8.96
2022-10-17T02:28:24.069Z,8.94
2022-10-17T02:31:21.431Z,8.84
2022-10-17T02:34:02.931Z,8.85
2022-10-17T02:36:35.492Z,9.01
2022-10-17T02:39:05.390Z,8.83
2022-10-17T02:41:34.250Z,8.87
2022-10-17T02:44:04.229Z,8.95
2022-10-17T02:46:33.304Z,8.79
2022-10-17T02:49:25.377Z,8.69
2022-10-17T02:52:13.742Z,8.67
2022-10-17T02:54:51.434Z,8.61
2022-10-17T02:57:21.341Z,8.49
2022-10-17T02:59:50.347Z,8.54
2022-10-17T03:02:18.181Z,8.48
2022-10-17T03:04:46.995Z,8.51
2022-10-17T03:07:13.997Z,8.44
2022-10-17T03:09:40.952Z,8.41
2022-10-17T03:12:08.104Z,8.38
2022-10-17T03:14:35.636Z,8.34
2022-10-17T03:17:03.874Z,8.36
2022-10-17T03:19:31.049Z,8.52
2022-10-17T03:21:57.916Z,8.53
2022-10-17T03:24:26.117Z,8.43
2022-10-17T03:26:53.428Z,8.43
2022-10-17T03:29:20.377Z,8.42
2022-10-17T03:31:47.875Z,8.41
2022-10-17T03:34:14.988Z,8.37
2022-10-17T03:36:41.804Z,8.47
2022-10-17T03:39:08.778Z,8.38
2022-10-17T03:41:35.562Z,8.36
2022-10-17T03:44:03.194Z,8.35
2022-10-17T03:46:31.106Z,8.45
2022-10-17T03:49:00.076Z,8.27
2022-10-17T03:51:27.110Z,8.25
2022-10-17T03:54:00.905Z,8.29
2022-10-17T03:56:28.080Z,8.44
2022-10-17T03:59:09.728Z,8.51
2022-10-17T04:01:38.599Z,8.33
2022-10-17T04:04:05.618Z,8.32
2022-10-17T04:06:35.798Z,8.23
2022-10-17T04:09:03.901Z,8.31
2022-10-17T04:11:53.909Z,8.29
2022-10-17T04:14:22.016Z,8.27
2022-10-17T04:16:48.909Z,8.44
2022-10-17T04:19:20.483Z,8.37
2022-10-17T04:21:48.142Z,8.34
2022-10-17T04:24:15.541Z,8.38
2022-10-17T04:26:53.095Z,8.46
2022-10-17T04:29:22.353Z,8.43
2022-10-17T04:31:51.763Z,8.45
2022-10-17T04:34:44.550Z,8.39
2022-10-17T04:37:11.515Z,8.48
2022-10-17T04:39:38.332Z,8.37
2022-10-17T04:42:05.353Z,8.54
2022-10-17T04:44:32.464Z,8.36
2022-10-17T04:46:59.735Z,8.40
2022-10-17T04:49:27.570Z,8.41
2022-10-17T04:51:59.316Z,8.25
2022-10-17T04:54:38.011Z,8.17
2022-10-17T04:57:10.209Z,8.15
2022-10-17T04:59:38.955Z,8.17
2022-10-17T05:02:28.693Z,8.17
2022-10-17T05:04:57.055Z,8.09
2022-10-17T05:07:24.335Z,8.13
2022-10-17T05:09:58.698Z,8.01
2022-10-17T05:12:26.561Z,8.13
2022-10-17T05:14:54.182Z,8.07
2022-10-17T05:17:22.259Z,8.09
2022-10-17T05:19:50.126Z,8.01
2022-10-17T05:22:17.132Z,7.98
2022-10-17T05:24:44.025Z,8.07
2022-10-17T05:27:11.384Z,7.98
2022-10-17T05:29:38.318Z,7.96
2022-10-17T05:32:16.611Z,7.95
2022-10-17T05:34:43.780Z,7.99
2022-10-17T05:37:11.530Z,8.02
2022-10-17T05:39:39.600Z,7.97
2022-10-17T05:42:07.692Z,8.04
2022-10-17T05:44:35.352Z,8.11
2022-10-17T05:47:02.721Z,8.16
2022-10-17T05:49:44.739Z,8.22
2022-10-17T05:52:16.302Z,8.26
2022-10-17T05:55:07.020Z,8.30
2022-10-17T05:57:34.000Z,8.34
2022-10-17T06:00:02.383Z,8.38
2022-10-17T06:02:41.142Z,8.42
2022-10-17T06:05:09.504Z,8.41
2022-10-17T06:07:36.835Z,8.43
2022-10-17T06:10:06.189Z,8.43
2022-10-17T06:12:33.405Z,8.49
2022-10-17T06:15:00.325Z,8.54
2022-10-17T06:17:27.212Z,8.57
2022-10-17T06:19:54.133Z,8.64
2022-10-17T06:22:21.403Z,8.69
2022-10-17T06:24:48.254Z,8.74
2022-10-17T06:27:15.456Z,8.81
2022-10-17T06:29:42.340Z,8.86
2022-10-17T06:32:12.765Z,8.92
2022-10-17T06:34:43.916Z,8.97
2022-10-17T06:37:11.079Z,9.08
2022-10-17T06:39:39.904Z,9.17
2022-10-17T06:42:15.781Z,9.24
2022-10-17T06:44:48.834Z,9.29
2022-10-17T06:47:21.452Z,9.38
2022-10-17T06:49:49.613Z,9.47
2022-10-17T06:52:31.809Z,9.58
2022-10-17T06:55:27.597Z,9.72
2022-10-17T06:58:17.236Z,9.90
2022-10-17T07:01:10.297Z,10.05
2022-10-17T07:03:38.218Z,10.15
2022-10-17T07:06:06.199Z,10.24
2022-10-17T07:08:33.447Z,10.36
2022-10-17T07:11:13.909Z,10.52
2022-10-17T07:13:42.337Z,10.58
2022-10-17T07:16:10.103Z,10.63
2022-10-17T07:18:39.744Z,10.78
2022-10-17T07:21:07.835Z,10.86
2022-10-17T07:23:36.880Z,10.91
2022-10-17T07:26:07.751Z,11.04
2022-10-17T07:28:38.805Z,11.14
2022-10-17T07:31:18.342Z,11.22
2022-10-17T07:36:14.535Z,11.42
2022-10-17T07:38:42.019Z,11.52
2022-10-17T07:41:11.376Z,11.60
2022-10-17T07:43:38.409Z,11.72
2022-10-17T07:46:07.576Z,11.79
2022-10-17T07:48:34.967Z,11.90
2022-10-17T07:51:04.073Z,11.99
2022-10-17T07:53:30.915Z,12.10
2022-10-17T07:55:58.297Z,12.17
2022-10-17T07:58:25.194Z,12.28
2022-10-17T08:00:52.024Z,12.36
2022-10-17T08:03:18.891Z,12.43
2022-10-17T08:05:45.647Z,12.49
2022-10-17T08:08:12.399Z,12.60
2022-10-17T08:10:39.240Z,12.64
2022-10-17T08:13:06.056Z,12.69
2022-10-17T08:15:32.870Z,12.78
2022-10-17T08:17:59.830Z,12.90
2022-10-17T08:20:26.785Z,13.02
2022-10-17T08:22:56.567Z,13.08
2022-10-17T08:25:23.606Z,13.14
2022-10-17T08:27:50.613Z,13.19
2022-10-17T08:30:17.604Z,13.26
2022-10-17T08:32:44.348Z,13.35
2022-10-17T08:35:11.070Z,13.43
2022-10-17T08:37:37.906Z,13.46
2022-10-17T08:40:05.094Z,13.51
2022-10-17T08:43:04.352Z,13.59
2022-10-17T08:45:55.170Z,13.63
2022-10-17T08:48:25.538Z,13.68
2022-10-17T08:50:58.209Z,13.74
2022-10-17T08:53:31.930Z,13.84
2022-10-17T08:56:11.878Z,13.87
2022-10-17T08:58:39.006Z,13.89
2022-10-17T09:01:29.133Z,13.95
2022-10-17T09:04:12.138Z,13.98
2022-10-17T09:06:46.503Z,14.00
2022-10-17T09:09:32.572Z,14.08
2022-10-17T09:12:24.673Z,14.14
2022-10-17T09:15:09.774Z,14.19
2022-10-17T09:18:22.670Z,14.24
2022-10-17T09:20:57.902Z,14.30
2022-10-17T09:23:45.397Z,14.34
2022-10-17T09:26:13.105Z,14.37
2022-10-17T09:28:42.255Z,14.51
2022-10-17T09:31:20.535Z,14.52
2022-10-17T09:33:54.180Z,14.54
2022-10-17T09:36:28.397Z,14.58
2022-10-17T09:38:59.130Z,14.65
2022-10-17T09:41:50.512Z,14.83
2022-10-17T09:44:19.790Z,14.83
2022-10-17T09:46:52.595Z,14.94
2022-10-17T09:49:26.102Z,14.98
2022-10-17T09:51:53.065Z,15.02
2022-10-17T09:54:52.299Z,15.08
2022-10-17T09:57:20.812Z,15.18
2022-10-17T09:59:58.122Z,15.34
2022-10-17T10:02:27.204Z,15.62
2022-10-17T10:05:09.027Z,15.75
2022-10-17T10:07:38.849Z,15.94
2022-10-17T10:10:27.615Z,16.06
2022-10-17T10:13:18.517Z,16.10
2022-10-17T10:15:47.289Z,16.15
2022-10-17T10:18:32.819Z,16.37
2022-10-17T10:21:08.534Z,16.62
2022-10-17T10:23:36.760Z,16.66
2022-10-17T10:26:06.303Z,16.86
2022-10-17T10:28:37.133Z,16.83
2022-10-17T10:31:08.089Z,16.87
2022-10-17T10:33:41.760Z,17.15
2022-10-17T10:36:09.069Z,17.34
2022-10-17T10:38:40.429Z,17.34
2022-10-17T10:41:11.839Z,17.37
2022-10-17T10:43:43.641Z,17.46
2022-10-17T10:46:25.576Z,17.43
2022-10-17T10:49:00.881Z,17.52
2022-10-17T10:51:38.009Z,17.63
2022-10-17T10:54:21.800Z,17.67
2022-10-17T10:56:54.748Z,17.80
2022-10-17T10:59:36.231Z,17.87
2022-10-17T11:02:27.656Z,17.91
2022-10-17T11:05:02.098Z,17.94
2022-10-17T11:08:03.817Z,17.98
2022-10-17T11:10:53.475Z,18.07
2022-10-17T11:13:25.368Z,18.13
2022-10-17T11:16:16.489Z,18.16
2022-10-17T11:18:53.711Z,18.19
2022-10-17T11:21:43.763Z,18.38
2022-10-17T11:24:23.940Z,18.46
2022-10-17T11:26:56.908Z,18.47
2022-10-17T11:29:31.530Z,18.52
2022-10-17T11:32:05.752Z,18.76
2022-10-17T11:34:40.012Z,18.74
2022-10-17T11:37:22.215Z,18.73
2022-10-17T11:39:57.830Z,18.84
2022-10-17T11:42:41.499Z,18.96
2022-10-17T11:45:19.621Z,18.92
2022-10-17T11:47:51.946Z,19.07
2022-10-17T11:53:28.902Z,19.09
2022-10-17T11:55:59.146Z,19.09
2022-10-17T11:58:39.865Z,19.28
2022-10-17T12:01:21.563Z,19.31
2022-10-17T12:04:21.949Z,19.42
2022-10-17T12:07:21.976Z,19.41
2022-10-17T12:09:51.772Z,19.52
2022-10-17T12:12:28.346Z,19.49
2022-10-17T12:15:21.295Z,19.53
2022-10-17T12:18:04.334Z,19.59
2022-10-17T12:20:38.699Z,19.56
2022-10-17T12:23:11.626Z,19.58
2022-10-17T12:25:50.053Z,19.76
2022-10-17T12:28:47.283Z,19.80
2022-10-17T12:31:17.197Z,19.96
2022-10-17T12:34:04.854Z,19.95
2022-10-17T12:36:31.715Z,19.91
2022-10-17T12:39:01.555Z,19.89
2022-10-17T12:41:40.609Z,19.87
2022-10-17T12:44:13.499Z,19.89
2022-10-17T12:47:07.505Z,19.94
2022-10-17T12:49:54.451Z,20.02
2022-10-17T12:52:32.173Z,20.09
2022-10-17T12:55:13.021Z,20.07
2022-10-17T12:58:03.925Z,20.09
2022-10-17T13:01:18.852Z,20.15
2022-10-17T13:03:45.214Z,20.23
2022-10-17T13:06:25.104Z,20.23
2022-10-17T13:09:03.515Z,20.22
2022-10-17T13:11:34.263Z,20.22
2022-10-17T13:14:04.005Z,20.21
2022-10-17T13:16:36.572Z,20.18
2022-10-17T13:19:15.914Z,20.32
2022-10-17T13:21:59.744Z,20.36
2022-10-17T13:24:35.598Z,20.34
2022-10-17T13:27:02.930Z,20.36
2022-10-17T13:29:30.836Z,20.33
2022-10-17T13:32:03.494Z,20.29
2022-10-17T13:34:32.228Z,20.25
2022-10-17T13:37:05.112Z,20.26
2022-10-17T13:40:00.340Z,20.25
2022-10-17T13:42:40.573Z,20.28
2022-10-17T13:45:34.881Z,20.27
2022-10-17T13:48:04.746Z,20.28
2022-10-17T13:50:44.163Z,20.37
2022-10-17T13:53:36.872Z,20.34
2022-10-17T13:56:27.743Z,20.38
2022-10-17T13:58:59.149Z,20.35
2022-10-17T14:01:28.751Z,20.33
2022-10-17T14:04:07.741Z,20.33
2022-10-17T14:06:46.178Z,20.32
2022-10-17T14:09:24.848Z,20.36
2022-10-17T14:12:11.447Z,20.31
2022-10-17T14:15:05.269Z,20.32
2022-10-17T14:17:28.993Z,20.28
2022-10-17T14:20:29.669Z,20.26
2022-10-17T14:22:54.553Z,20.31
2022-10-17T14:25:35.501Z,20.27
2022-10-17T14:28:11.400Z,20.25
2022-10-17T14:30:57.765Z,20.22
2022-10-17T14:33:29.867Z,20.20
2022-10-17T14:35:58.766Z,20.20
2022-10-17T14:38:27.782Z,20.16
2022-10-17T14:43:59.539Z,20.15
2022-10-17T14:46:27.347Z,20.10
2022-10-17T14:48:58.939Z,20.06
2022-10-17T14:51:25.870Z,20.03
2022-10-17T14:54:05.762Z,20.01
2022-10-17T14:56:40.366Z,19.98
2022-10-17T14:59:11.788Z,19.98
2022-10-17T15:01:39.336Z,19.95
2022-10-17T15:04:06.158Z,19.90
2022-10-17T15:06:34.497Z,19.85
2022-10-17T15:09:02.070Z,19.80
2022-10-17T15:11:28.928Z,19.76
2022-10-17T15:13:56.295Z,19.73
2022-10-17T15:16:26.576Z,19.70
2022-10-17T15:18:54.397Z,19.65
2022-10-17T15:21:39.255Z,19.63
2022-10-17T15:24:07.677Z,19.60
2022-10-17T15:26:35.638Z,19.57
2022-10-17T15:29:02.889Z,19.54
2022-10-17T15:31:31.107Z,19.49
2022-10-17T15:33:57.986Z,19.43
2022-10-17T15:36:29.115Z,19.37
2022-10-17T15:38:58.946Z,19.34
2022-10-17T15:41:28.893Z,19.30
2022-10-17T15:43:56.309Z,19.27
2022-10-17T15:46:33.311Z,19.21
2022-10-17T15:49:08.171Z,19.14
2022-10-17T15:51:35.042Z,19.10
2022-10-17T15:54:02.110Z,19.06
2022-10-17T15:56:31.854Z,19.00
2022-10-17T15:58:58.809Z,18.97
2022-10-17T16:01:28.633Z,18.93
2022-10-17T16:03:56.910Z,18.86
2022-10-17T16:06:24.941Z,18.83
2022-10-17T16:08:52.587Z,18.79
2022-10-17T16:11:29.453Z,18.77
2022-10-17T16:13:59.432Z,18.74
2022-10-17T16:16:26.747Z,18.69
2022-10-17T16:18:53.604Z,18.63
2022-10-17T16:21:26.820Z,18.59
2022-10-17T16:23:54.106Z,18.54
2022-10-17T16:26:20.970Z,18.50
2022-10-17T16:28:47.894Z,18.47
2022-10-17T16:31:23.488Z,18.39
2022-10-17T16:33:52.565Z,18.35
2022-10-17T16:36:20.154Z,18.33
2022-10-17T16:38:48.024Z,18.30
2022-10-17T16:41:30.075Z,18.25
2022-10-17T16:44:00.013Z,18.17
2022-10-17T16:46:28.713Z,18.10
2022-10-17T16:48:56.645Z,18.07
2022-10-17T16:51:23.484Z,18.01
2022-10-17T16:53:52.015Z,17.99
2022-10-17T16:56:21.146Z,17.95
2022-10-17T16:58:49.208Z,17.90
2022-10-17T17:01:19.294Z,17.82
2022-10-17T17:03:47.770Z,17.83
2022-10-17T17:06:17.278Z,17.77
2022-10-17T17:08:44.649Z,17.74
2022-10-17T17:11:14.158Z,17.69
2022-10-17T17:13:41.453Z,17.64
2022-10-17T17:16:20.860Z,17.54
2022-10-17T17:18:49.363Z,17.49
2022-10-17T17:21:16.759Z,17.46
2022-10-17T17:23:44.308Z,17.40
2022-10-17T17:26:17.801Z,17.35
2022-10-17T17:28:45.942Z,17.34
2022-10-17T17:31:18.888Z,17.32
2022-10-17T17:33:46.901Z,17.29
2022-10-17T17:36:19.212Z,17.29
2022-10-17T17:38:48.178Z,17.18
2022-10-17T17:41:17.572Z,17.13
2022-10-17T17:43:46.494Z,17.08
2022-10-17T17:46:15.249Z,17.05
2022-10-17T17:48:43.914Z,17.06
2022-10-17T17:51:13.290Z,17.01
2022-10-17T17:53:41.254Z,16.95
2022-10-17T17:56:15.405Z,16.94
2022-10-17T17:58:44.659Z,16.90
2022-10-17T18:01:22.845Z,16.87
2022-10-17T18:03:52.310Z,16.84
2022-10-17T18:06:21.630Z,16.84
2022-10-17T18:08:55.646Z,16.82
2022-10-17T18:11:23.703Z,16.78
2022-10-17T18:14:00.489Z,16.74
2022-10-17T18:16:31.190Z,16.74
2022-10-17T18:19:04.088Z,16.67
2022-10-17T18:21:36.404Z,16.67
2022-10-17T18:24:07.714Z,16.67
2022-10-17T18:26:36.914Z,16.66
2022-10-17T18:29:06.218Z,16.65
2022-10-17T18:31:35.228Z,16.60
2022-10-17T18:34:04.225Z,16.58
2022-10-17T18:36:34.141Z,16.52
2022-10-17T18:39:04.554Z,16.51
2022-10-17T18:41:33.954Z,16.51
2022-10-17T18:44:02.214Z,16.47
2022-10-17T18:46:33.112Z,16.46
2022-10-17T18:49:01.378Z,16.43
2022-10-17T18:51:29.117Z,16.41
2022-10-17T18:53:58.210Z,16.36
2022-10-17T18:56:28.509Z,16.36
2022-10-17T18:58:59.862Z,16.28
2022-10-17T19:01:28.865Z,16.22
2022-10-17T19:03:59.175Z,16.19
2022-10-17T19:06:29.943Z,16.15
2022-10-17T19:08:57.102Z,16.10
2022-10-17T19:11:27.136Z,16.08
2022-10-17T19:13:57.048Z,16.03
2022-10-17T19:16:32.657Z,15.98
2022-10-17T19:19:04.113Z,15.96
2022-10-17T19:21:33.943Z,15.93
2022-10-17T19:24:04.257Z,15.92
2022-10-17T19:26:34.616Z,15.90
2022-10-17T19:29:02.764Z,15.94
2022-10-17T19:31:32.966Z,15.94
2022-10-17T19:34:02.820Z,15.93
2022-10-17T19:36:34.790Z,15.95
2022-10-17T19:39:08.470Z,15.93
2022-10-17T19:41:36.452Z,15.91
2022-10-17T19:44:04.812Z,15.91
2022-10-17T19:46:34.119Z,15.89
2022-10-17T19:49:03.031Z,15.89
2022-10-17T19:51:31.074Z,15.82
2022-10-17T19:54:02.674Z,15.82
2022-10-17T19:56:32.953Z,15.76
2022-10-17T19:59:00.781Z,15.75
2022-10-17T20:01:32.733Z,15.73
2022-10-17T20:03:59.960Z,15.67
2022-10-17T20:06:27.324Z,15.63
2022-10-17T20:08:55.139Z,15.50
2022-10-17T20:11:25.373Z,15.39
2022-10-17T20:13:55.055Z,15.35
2022-10-17T20:16:25.176Z,15.25
2022-10-17T20:18:55.249Z,15.09
2022-10-17T20:21:27.621Z,15.12
2022-10-17T20:23:55.359Z,15.11
2022-10-17T20:26:37.093Z,15.05
2022-10-17T20:29:26.360Z,14.97
2022-10-17T20:31:53.125Z,14.94
2022-10-17T20:34:20.016Z,14.77
2022-10-17T20:36:47.402Z,14.79
2022-10-17T20:39:15.810Z,14.69
2022-10-17T20:41:43.100Z,14.76
2022-10-17T20:44:10.893Z,14.68
2022-10-17T20:46:44.732Z,14.49
2022-10-17T20:49:16.812Z,14.57
2022-10-17T20:51:44.091Z,14.29
2022-10-17T20:54:11.000Z,14.39
2022-10-17T20:56:37.737Z,14.13
2022-10-17T20:59:07.965Z,14.18
2022-10-17T21:01:35.969Z,14.01
2022-10-17T21:04:26.833Z,14.21
2022-10-17T21:06:51.716Z,14.09
2022-10-17T21:09:18.604Z,14.09
2022-10-17T21:11:45.684Z,14.14
2022-10-17T21:14:12.718Z,14.11
2022-10-17T21:16:40.286Z,14.18
2022-10-17T21:19:07.077Z,14.20
2022-10-17T21:21:36.775Z,14.22
2022-10-17T21:24:09.566Z,14.23
2022-10-17T21:26:37.358Z,14.20
2022-10-17T21:29:05.741Z,14.17
2022-10-17T21:31:35.178Z,14.20
2022-10-17T21:34:10.123Z,14.23
2022-10-17T21:36:37.135Z,14.24
2022-10-17T21:39:05.336Z,14.22
2022-10-17T21:41:33.777Z,14.30
2022-10-17T21:44:04.168Z,14.28
2022-10-17T21:46:32.902Z,14.20
2022-10-17T21:49:01.066Z,14.08
2022-10-17T21:51:28.103Z,14.09
2022-10-17T21:53:56.570Z,14.05
2022-10-17T21:56:28.713Z,14.06
2022-10-17T21:58:55.630Z,14.04
2022-10-17T22:01:25.245Z,14.07
2022-10-17T22:03:57.830Z,14.06
2022-10-17T22:06:42.762Z,14.02
2022-10-17T22:09:22.490Z,13.95
2022-10-17T22:11:52.274Z,13.89
2022-10-17T22:14:20.504Z,13.86
2022-10-17T22:16:48.620Z,13.83
2022-10-17T22:19:18.676Z,13.77
2022-10-17T22:21:45.704Z,13.68
2022-10-17T22:24:14.762Z,13.73
2022-10-17T22:26:42.513Z,13.65
2022-10-17T22:29:10.785Z,13.55
2022-10-17T22:31:38.527Z,13.61
2022-10-17T22:34:06.699Z,13.64
2022-10-17T22:36:34.506Z,13.57
2022-10-17T22:39:01.473Z,13.58
2022-10-17T22:41:28.517Z,13.55
2022-10-17T22:43:55.378Z,13.40
2022-10-17T22:46:22.182Z,13.26
2022-10-17T22:48:48.933Z,13.04
2022-10-17T22:51:16.028Z,12.99
2022-10-17T22:53:43.009Z,12.99
2022-10-17T22:56:12.724Z,12.86
2022-10-17T22:58:40.015Z,12.58
2022-10-17T23:01:08.832Z,12.50
2022-10-17T23:03:36.246Z,12.57
2022-10-17T23:06:04.077Z,12.43
2022-10-17T23:08:31.054Z,12.53
2022-10-17T23:10:57.970Z,12.62
2022-10-17T23:13:24.867Z,12.70
2022-10-17T23:15:56.149Z,12.59
2022-10-17T23:18:25.006Z,12.42
2022-10-17T23:20:52.187Z,12.40
2022-10-17T23:23:19.740Z,12.50
2022-10-17T23:25:47.198Z,12.49
2022-10-17T23:28:14.140Z,12.64
2022-10-17T23:30:41.516Z,12.68
2022-10-17T23:33:11.978Z,12.55
2022-10-17T23:35:38.861Z,12.43
2022-10-17T23:38:05.710Z,12.41
2022-10-17T23:40:32.589Z,12.20
2022-10-17T23:42:59.401Z,12.11
2022-10-17T23:45:26.332Z,12.18
2022-10-17T23:47:53.173Z,12.27
2022-10-17T23:50:19.929Z,12.08
2022-10-17T23:52:46.758Z,11.94
2022-10-17T23:55:13.531Z,11.93
2022-10-17T23:57:40.322Z,12.07
